sensor_id;sensor_type;location;lat;lon;timestamp;P1;durP1;ratioP1;P2;durP2;ratioP2
79640;SDS011;69115;49.904;14.390;2024-02-28T00:01:01;36.85;;;18.90;;
79640;SDS011;69115;49.904;14.390;2024-02-28T00:03:27;40.55;;;20.35;;
79640;SDS011;69115;49.904;14.390;2024-02-28T00:05:52;35.67;;;18.50;;
79640;SDS011;69115;49.904;14.390;2024-02-28T00:08:17;38.10;;;18.45;;
79640;SDS011;69115;49.904;14.390;2024-02-28T00:10:45;38.80;;;19.67;;
79640;SDS011;69115;49.904;14.390;2024-02-28T00:13:10;33.65;;;17.92;;
79640;SDS011;69115;49.904;14.390;2024-02-28T00:15:36;41.65;;;20.35;;
79640;SDS011;69115;49.904;14.390;2024-02-28T00:18:01;36.67;;;19.15;;
79640;SDS011;69115;49.904;14.390;2024-02-28T00:20:28;35.03;;;18.15;;
79640;SDS011;69115;49.904;14.390;2024-02-28T00:22:54;35.53;;;18.65;;
79640;SDS011;69115;49.904;14.390;2024-02-28T00:25:19;37.40;;;19.27;;
79640;SDS011;69115;49.904;14.390;2024-02-28T00:27:45;39.00;;;19.48;;
79640;SDS011;69115;49.904;14.390;2024-02-28T00:30:10;39.47;;;18.67;;
79640;SDS011;69115;49.904;14.390;2024-02-28T00:32:36;34.63;;;19.70;;
79640;SDS011;69115;49.904;14.390;2024-02-28T00:35:01;35.67;;;19.20;;
79640;SDS011;69115;49.904;14.390;2024-02-28T00:37:27;34.22;;;18.17;;
79640;SDS011;69115;49.904;14.390;2024-02-28T00:39:53;38.85;;;19.55;;
79640;SDS011;69115;49.904;14.390;2024-02-28T00:42:18;38.65;;;19.20;;
79640;SDS011;69115;49.904;14.390;2024-02-28T00:44:43;35.03;;;19.00;;
79640;SDS011;69115;49.904;14.390;2024-02-28T00:47:09;35.85;;;19.23;;
79640;SDS011;69115;49.904;14.390;2024-02-28T00:49:35;40.75;;;20.45;;
79640;SDS011;69115;49.904;14.390;2024-02-28T00:52:00;38.78;;;19.23;;
79640;SDS011;69115;49.904;14.390;2024-02-28T00:54:25;36.83;;;20.33;;
79640;SDS011;69115;49.904;14.390;2024-02-28T00:56:51;39.33;;;20.00;;
79640;SDS011;69115;49.904;14.390;2024-02-28T00:59:16;34.72;;;17.88;;
79640;SDS011;69115;49.904;14.390;2024-02-28T01:01:42;34.70;;;19.83;;
79640;SDS011;69115;49.904;14.390;2024-02-28T01:04:07;35.55;;;18.33;;
79640;SDS011;69115;49.904;14.390;2024-02-28T01:06:33;36.33;;;18.98;;
79640;SDS011;69115;49.904;14.390;2024-02-28T01:08:58;33.17;;;17.65;;
79640;SDS011;69115;49.904;14.390;2024-02-28T01:11:24;35.15;;;18.08;;
79640;SDS011;69115;49.904;14.390;2024-02-28T01:13:49;33.20;;;17.98;;
79640;SDS011;69115;49.904;14.390;2024-02-28T01:16:15;36.90;;;18.65;;
79640;SDS011;69115;49.904;14.390;2024-02-28T01:18:41;33.13;;;17.55;;
79640;SDS011;69115;49.904;14.390;2024-02-28T01:21:07;30.42;;;17.73;;
79640;SDS011;69115;49.904;14.390;2024-02-28T01:23:32;34.80;;;18.55;;
79640;SDS011;69115;49.904;14.390;2024-02-28T01:25:57;34.58;;;17.98;;
79640;SDS011;69115;49.904;14.390;2024-02-28T01:28:23;36.40;;;17.75;;
79640;SDS011;69115;49.904;14.390;2024-02-28T01:30:48;31.80;;;16.88;;
79640;SDS011;69115;49.904;14.390;2024-02-28T01:33:14;34.40;;;17.70;;
79640;SDS011;69115;49.904;14.390;2024-02-28T01:35:39;30.35;;;17.25;;
79640;SDS011;69115;49.904;14.390;2024-02-28T01:38:05;35.20;;;18.02;;
79640;SDS011;69115;49.904;14.390;2024-02-28T01:40:30;29.13;;;16.02;;
79640;SDS011;69115;49.904;14.390;2024-02-28T01:43:01;32.67;;;18.10;;
79640;SDS011;69115;49.904;14.390;2024-02-28T01:45:27;31.83;;;17.02;;
79640;SDS011;69115;49.904;14.390;2024-02-28T01:47:53;29.52;;;17.08;;
79640;SDS011;69115;49.904;14.390;2024-02-28T01:50:18;28.00;;;16.75;;
79640;SDS011;69115;49.904;14.390;2024-02-28T01:52:44;32.10;;;17.30;;
79640;SDS011;69115;49.904;14.390;2024-02-28T01:55:09;32.05;;;17.42;;
79640;SDS011;69115;49.904;14.390;2024-02-28T01:57:34;32.03;;;16.88;;
79640;SDS011;69115;49.904;14.390;2024-02-28T02:00:02;31.85;;;17.77;;
79640;SDS011;69115;49.904;14.390;2024-02-28T02:02:29;32.40;;;17.30;;
79640;SDS011;69115;49.904;14.390;2024-02-28T02:04:54;30.80;;;16.65;;
79640;SDS011;69115;49.904;14.390;2024-02-28T02:07:21;30.42;;;16.45;;
79640;SDS011;69115;49.904;14.390;2024-02-28T02:09:46;28.27;;;15.82;;
79640;SDS011;69115;49.904;14.390;2024-02-28T02:12:12;31.40;;;16.40;;
79640;SDS011;69115;49.904;14.390;2024-02-28T02:14:37;30.55;;;16.92;;
79640;SDS011;69115;49.904;14.390;2024-02-28T02:17:03;29.25;;;16.13;;
79640;SDS011;69115;49.904;14.390;2024-02-28T02:19:28;31.02;;;16.67;;
79640;SDS011;69115;49.904;14.390;2024-02-28T02:21:54;27.70;;;15.98;;
79640;SDS011;69115;49.904;14.390;2024-02-28T02:24:23;31.00;;;16.75;;
79640;SDS011;69115;49.904;14.390;2024-02-28T02:26:48;27.17;;;16.40;;
79640;SDS011;69115;49.904;14.390;2024-02-28T02:29:17;31.52;;;16.48;;
79640;SDS011;69115;49.904;14.390;2024-02-28T02:31:42;29.10;;;16.13;;
79640;SDS011;69115;49.904;14.390;2024-02-28T02:34:07;28.85;;;15.98;;
79640;SDS011;69115;49.904;14.390;2024-02-28T02:36:33;29.30;;;15.52;;
79640;SDS011;69115;49.904;14.390;2024-02-28T02:38:58;25.73;;;14.77;;
79640;SDS011;69115;49.904;14.390;2024-02-28T02:41:23;29.23;;;15.87;;
79640;SDS011;69115;49.904;14.390;2024-02-28T02:43:49;25.55;;;14.70;;
79640;SDS011;69115;49.904;14.390;2024-02-28T02:46:14;30.80;;;16.37;;
79640;SDS011;69115;49.904;14.390;2024-02-28T02:48:39;29.98;;;16.17;;
79640;SDS011;69115;49.904;14.390;2024-02-28T02:51:05;28.98;;;16.58;;
79640;SDS011;69115;49.904;14.390;2024-02-28T02:53:30;25.20;;;15.25;;
79640;SDS011;69115;49.904;14.390;2024-02-28T02:55:55;27.63;;;16.63;;
79640;SDS011;69115;49.904;14.390;2024-02-28T02:58:21;28.67;;;16.80;;
79640;SDS011;69115;49.904;14.390;2024-02-28T03:00:46;28.38;;;16.02;;
79640;SDS011;69115;49.904;14.390;2024-02-28T03:03:12;25.27;;;16.00;;
79640;SDS011;69115;49.904;14.390;2024-02-28T03:05:37;27.27;;;15.73;;
79640;SDS011;69115;49.904;14.390;2024-02-28T03:08:02;27.02;;;16.50;;
79640;SDS011;69115;49.904;14.390;2024-02-28T03:10:28;25.40;;;15.43;;
79640;SDS011;69115;49.904;14.390;2024-02-28T03:12:54;27.70;;;16.48;;
79640;SDS011;69115;49.904;14.390;2024-02-28T03:15:19;28.23;;;15.95;;
79640;SDS011;69115;49.904;14.390;2024-02-28T03:17:45;24.77;;;14.45;;
79640;SDS011;69115;49.904;14.390;2024-02-28T03:20:11;25.60;;;14.80;;
79640;SDS011;69115;49.904;14.390;2024-02-28T03:22:38;31.13;;;16.15;;
79640;SDS011;69115;49.904;14.390;2024-02-28T03:25:03;26.67;;;15.00;;
79640;SDS011;69115;49.904;14.390;2024-02-28T03:27:29;26.52;;;14.82;;
79640;SDS011;69115;49.904;14.390;2024-02-28T03:29:54;24.17;;;14.87;;
79640;SDS011;69115;49.904;14.390;2024-02-28T03:32:20;26.88;;;15.73;;
79640;SDS011;69115;49.904;14.390;2024-02-28T03:34:45;24.65;;;15.15;;
79640;SDS011;69115;49.904;14.390;2024-02-28T03:37:10;26.93;;;15.83;;
79640;SDS011;69115;49.904;14.390;2024-02-28T03:39:36;25.40;;;14.93;;
79640;SDS011;69115;49.904;14.390;2024-02-28T03:42:01;24.38;;;14.45;;
79640;SDS011;69115;49.904;14.390;2024-02-28T03:44:27;23.80;;;14.68;;
79640;SDS011;69115;49.904;14.390;2024-02-28T03:46:55;28.00;;;15.70;;
79640;SDS011;69115;49.904;14.390;2024-02-28T03:49:20;25.60;;;14.35;;
79640;SDS011;69115;49.904;14.390;2024-02-28T03:51:45;25.17;;;14.55;;
79640;SDS011;69115;49.904;14.390;2024-02-28T03:54:11;23.50;;;14.30;;
79640;SDS011;69115;49.904;14.390;2024-02-28T03:56:36;26.70;;;15.88;;
79640;SDS011;69115;49.904;14.390;2024-02-28T03:59:02;23.80;;;14.75;;
79640;SDS011;69115;49.904;14.390;2024-02-28T04:01:28;23.02;;;14.63;;
79640;SDS011;69115;49.904;14.390;2024-02-28T04:03:54;24.35;;;15.05;;
79640;SDS011;69115;49.904;14.390;2024-02-28T04:06:19;26.05;;;15.65;;
79640;SDS011;69115;49.904;14.390;2024-02-28T04:08:45;23.42;;;14.48;;
79640;SDS011;69115;49.904;14.390;2024-02-28T04:11:10;23.63;;;14.38;;
79640;SDS011;69115;49.904;14.390;2024-02-28T04:13:36;23.67;;;14.07;;
79640;SDS011;69115;49.904;14.390;2024-02-28T04:16:01;27.83;;;15.35;;
79640;SDS011;69115;49.904;14.390;2024-02-28T04:18:28;25.08;;;14.43;;
79640;SDS011;69115;49.904;14.390;2024-02-28T04:20:53;23.83;;;14.15;;
79640;SDS011;69115;49.904;14.390;2024-02-28T04:23:19;23.90;;;14.83;;
79640;SDS011;69115;49.904;14.390;2024-02-28T04:25:44;22.60;;;14.43;;
79640;SDS011;69115;49.904;14.390;2024-02-28T04:28:10;23.20;;;13.85;;
79640;SDS011;69115;49.904;14.390;2024-02-28T04:30:35;21.70;;;14.10;;
79640;SDS011;69115;49.904;14.390;2024-02-28T04:33:01;23.90;;;12.85;;
79640;SDS011;69115;49.904;14.390;2024-02-28T04:35:26;24.08;;;14.65;;
79640;SDS011;69115;49.904;14.390;2024-02-28T04:37:51;21.08;;;13.70;;
79640;SDS011;69115;49.904;14.390;2024-02-28T04:40:17;23.17;;;13.70;;
79640;SDS011;69115;49.904;14.390;2024-02-28T04:42:42;21.10;;;12.93;;
79640;SDS011;69115;49.904;14.390;2024-02-28T04:45:08;22.42;;;13.55;;
79640;SDS011;69115;49.904;14.390;2024-02-28T04:47:34;24.17;;;14.10;;
79640;SDS011;69115;49.904;14.390;2024-02-28T04:49:59;26.85;;;15.10;;
79640;SDS011;69115;49.904;14.390;2024-02-28T04:52:24;24.80;;;14.68;;
79640;SDS011;69115;49.904;14.390;2024-02-28T04:54:50;27.60;;;15.85;;
79640;SDS011;69115;49.904;14.390;2024-02-28T04:57:16;23.20;;;14.77;;
79640;SDS011;69115;49.904;14.390;2024-02-28T04:59:42;23.77;;;14.10;;
79640;SDS011;69115;49.904;14.390;2024-02-28T05:02:08;23.27;;;14.30;;
79640;SDS011;69115;49.904;14.390;2024-02-28T05:04:34;27.60;;;16.15;;
79640;SDS011;69115;49.904;14.390;2024-02-28T05:06:59;29.75;;;15.60;;
79640;SDS011;69115;49.904;14.390;2024-02-28T05:09:25;24.95;;;15.35;;
79640;SDS011;69115;49.904;14.390;2024-02-28T05:11:50;27.00;;;15.27;;
79640;SDS011;69115;49.904;14.390;2024-02-28T05:14:16;29.10;;;16.27;;
79640;SDS011;69115;49.904;14.390;2024-02-28T05:16:41;29.87;;;15.50;;
79640;SDS011;69115;49.904;14.390;2024-02-28T05:19:06;29.08;;;15.40;;
79640;SDS011;69115;49.904;14.390;2024-02-28T05:21:38;27.50;;;15.88;;
79640;SDS011;69115;49.904;14.390;2024-02-28T05:24:04;26.02;;;14.77;;
79640;SDS011;69115;49.904;14.390;2024-02-28T05:26:30;26.45;;;14.43;;
79640;SDS011;69115;49.904;14.390;2024-02-28T05:28:58;27.42;;;15.88;;
79640;SDS011;69115;49.904;14.390;2024-02-28T05:31:24;29.50;;;16.27;;
79640;SDS011;69115;49.904;14.390;2024-02-28T05:33:51;28.88;;;16.17;;
79640;SDS011;69115;49.904;14.390;2024-02-28T05:36:17;27.50;;;15.30;;
79640;SDS011;69115;49.904;14.390;2024-02-28T05:38:43;28.00;;;14.60;;
79640;SDS011;69115;49.904;14.390;2024-02-28T05:41:08;27.10;;;15.18;;
79640;SDS011;69115;49.904;14.390;2024-02-28T05:43:33;25.92;;;14.73;;
79640;SDS011;69115;49.904;14.390;2024-02-28T05:45:59;28.40;;;16.20;;
79640;SDS011;69115;49.904;14.390;2024-02-28T05:48:24;36.40;;;20.13;;
79640;SDS011;69115;49.904;14.390;2024-02-28T05:50:49;31.73;;;17.80;;
79640;SDS011;69115;49.904;14.390;2024-02-28T05:53:15;27.83;;;15.98;;
79640;SDS011;69115;49.904;14.390;2024-02-28T05:55:40;27.55;;;15.82;;
79640;SDS011;69115;49.904;14.390;2024-02-28T05:58:06;23.67;;;13.88;;
79640;SDS011;69115;49.904;14.390;2024-02-28T06:00:31;29.38;;;15.60;;
79640;SDS011;69115;49.904;14.390;2024-02-28T06:02:56;28.17;;;15.15;;
79640;SDS011;69115;49.904;14.390;2024-02-28T06:05:25;26.75;;;15.43;;
79640;SDS011;69115;49.904;14.390;2024-02-28T06:07:50;26.17;;;15.38;;
79640;SDS011;69115;49.904;14.390;2024-02-28T06:10:16;25.50;;;13.98;;
79640;SDS011;69115;49.904;14.390;2024-02-28T06:12:41;27.03;;;15.60;;
79640;SDS011;69115;49.904;14.390;2024-02-28T06:15:06;26.00;;;15.25;;
79640;SDS011;69115;49.904;14.390;2024-02-28T06:17:32;28.10;;;15.70;;
79640;SDS011;69115;49.904;14.390;2024-02-28T06:19:57;27.90;;;15.35;;
79640;SDS011;69115;49.904;14.390;2024-02-28T06:22:23;26.27;;;14.23;;
79640;SDS011;69115;49.904;14.390;2024-02-28T06:24:48;31.67;;;17.83;;
79640;SDS011;69115;49.904;14.390;2024-02-28T06:27:14;27.88;;;16.67;;
79640;SDS011;69115;49.904;14.390;2024-02-28T06:29:40;29.88;;;16.52;;
79640;SDS011;69115;49.904;14.390;2024-02-28T06:32:06;32.67;;;17.35;;
79640;SDS011;69115;49.904;14.390;2024-02-28T06:34:31;33.45;;;17.63;;
79640;SDS011;69115;49.904;14.390;2024-02-28T06:36:57;29.50;;;16.38;;
79640;SDS011;69115;49.904;14.390;2024-02-28T06:39:22;29.38;;;16.50;;
79640;SDS011;69115;49.904;14.390;2024-02-28T06:41:48;34.10;;;17.83;;
79640;SDS011;69115;49.904;14.390;2024-02-28T06:44:17;29.25;;;16.42;;
79640;SDS011;69115;49.904;14.390;2024-02-28T06:46:43;27.95;;;15.70;;
79640;SDS011;69115;49.904;14.390;2024-02-28T06:49:09;28.77;;;15.73;;
79640;SDS011;69115;49.904;14.390;2024-02-28T06:51:34;26.77;;;15.55;;
79640;SDS011;69115;49.904;14.390;2024-02-28T06:53:59;30.53;;;16.57;;
79640;SDS011;69115;49.904;14.390;2024-02-28T06:56:25;26.13;;;14.97;;
79640;SDS011;69115;49.904;14.390;2024-02-28T06:58:50;26.13;;;15.13;;
79640;SDS011;69115;49.904;14.390;2024-02-28T07:01:15;28.60;;;15.27;;
79640;SDS011;69115;49.904;14.390;2024-02-28T07:03:43;23.50;;;13.85;;
79640;SDS011;69115;49.904;14.390;2024-02-28T07:06:09;27.25;;;15.07;;
79640;SDS011;69115;49.904;14.390;2024-02-28T07:08:34;25.95;;;15.68;;
79640;SDS011;69115;49.904;14.390;2024-02-28T07:11:00;25.58;;;14.25;;
79640;SDS011;69115;49.904;14.390;2024-02-28T07:13:26;23.55;;;14.32;;
79640;SDS011;69115;49.904;14.390;2024-02-28T07:15:52;24.85;;;14.57;;
79640;SDS011;69115;49.904;14.390;2024-02-28T07:18:19;24.45;;;13.80;;
79640;SDS011;69115;49.904;14.390;2024-02-28T07:20:45;21.75;;;13.55;;
79640;SDS011;69115;49.904;14.390;2024-02-28T07:23:11;21.77;;;13.73;;
79640;SDS011;69115;49.904;14.390;2024-02-28T07:25:36;21.38;;;12.98;;
79640;SDS011;69115;49.904;14.390;2024-02-28T07:28:02;24.85;;;13.27;;
79640;SDS011;69115;49.904;14.390;2024-02-28T07:30:27;23.75;;;13.15;;
79640;SDS011;69115;49.904;14.390;2024-02-28T07:32:53;25.83;;;13.48;;
79640;SDS011;69115;49.904;14.390;2024-02-28T07:35:19;22.92;;;12.68;;
79640;SDS011;69115;49.904;14.390;2024-02-28T07:37:45;21.98;;;13.57;;
79640;SDS011;69115;49.904;14.390;2024-02-28T07:40:11;25.02;;;12.93;;
79640;SDS011;69115;49.904;14.390;2024-02-28T07:42:37;21.73;;;13.32;;
79640;SDS011;69115;49.904;14.390;2024-02-28T07:45:02;27.48;;;14.40;;
79640;SDS011;69115;49.904;14.390;2024-02-28T07:47:28;21.65;;;13.65;;
79640;SDS011;69115;49.904;14.390;2024-02-28T07:49:53;22.00;;;12.52;;
79640;SDS011;69115;49.904;14.390;2024-02-28T07:52:19;20.38;;;13.07;;
79640;SDS011;69115;49.904;14.390;2024-02-28T07:54:44;22.98;;;12.85;;
79640;SDS011;69115;49.904;14.390;2024-02-28T07:57:10;25.60;;;12.80;;
79640;SDS011;69115;49.904;14.390;2024-02-28T07:59:40;26.55;;;12.55;;
79640;SDS011;69115;49.904;14.390;2024-02-28T08:02:08;23.92;;;12.85;;
79640;SDS011;69115;49.904;14.390;2024-02-28T08:04:35;20.85;;;12.57;;
79640;SDS011;69115;49.904;14.390;2024-02-28T08:07:00;19.00;;;11.60;;
79640;SDS011;69115;49.904;14.390;2024-02-28T08:09:26;22.20;;;12.45;;
79640;SDS011;69115;49.904;14.390;2024-02-28T08:11:51;21.83;;;11.63;;
79640;SDS011;69115;49.904;14.390;2024-02-28T08:14:16;19.27;;;11.88;;
79640;SDS011;69115;49.904;14.390;2024-02-28T08:16:42;19.42;;;11.45;;
79640;SDS011;69115;49.904;14.390;2024-02-28T08:19:08;18.38;;;11.38;;
79640;SDS011;69115;49.904;14.390;2024-02-28T08:21:33;18.25;;;11.13;;
79640;SDS011;69115;49.904;14.390;2024-02-28T08:23:58;17.55;;;11.23;;
79640;SDS011;69115;49.904;14.390;2024-02-28T08:26:24;18.98;;;10.85;;
79640;SDS011;69115;49.904;14.390;2024-02-28T08:28:49;18.38;;;10.98;;
79640;SDS011;69115;49.904;14.390;2024-02-28T08:31:15;20.00;;;12.43;;
79640;SDS011;69115;49.904;14.390;2024-02-28T08:33:41;20.08;;;11.20;;
79640;SDS011;69115;49.904;14.390;2024-02-28T08:36:06;18.58;;;11.27;;
79640;SDS011;69115;49.904;14.390;2024-02-28T08:38:32;18.23;;;11.10;;
79640;SDS011;69115;49.904;14.390;2024-02-28T08:40:57;16.33;;;10.43;;
79640;SDS011;69115;49.904;14.390;2024-02-28T08:43:23;18.33;;;11.15;;
79640;SDS011;69115;49.904;14.390;2024-02-28T08:45:48;16.17;;;10.73;;
79640;SDS011;69115;49.904;14.390;2024-02-28T08:48:16;19.25;;;11.20;;
79640;SDS011;69115;49.904;14.390;2024-02-28T08:50:42;15.32;;;9.70;;
79640;SDS011;69115;49.904;14.390;2024-02-28T08:53:07;17.87;;;10.87;;
79640;SDS011;69115;49.904;14.390;2024-02-28T08:55:33;21.77;;;11.30;;
79640;SDS011;69115;49.904;14.390;2024-02-28T08:57:59;19.02;;;11.65;;
79640;SDS011;69115;49.904;14.390;2024-02-28T09:00:25;15.43;;;9.93;;
79640;SDS011;69115;49.904;14.390;2024-02-28T09:02:50;17.92;;;11.23;;
79640;SDS011;69115;49.904;14.390;2024-02-28T09:05:16;17.42;;;10.18;;
79640;SDS011;69115;49.904;14.390;2024-02-28T09:07:41;20.38;;;11.45;;
79640;SDS011;69115;49.904;14.390;2024-02-28T09:10:07;20.02;;;12.65;;
79640;SDS011;69115;49.904;14.390;2024-02-28T09:12:33;18.00;;;11.43;;
79640;SDS011;69115;49.904;14.390;2024-02-28T09:14:58;19.55;;;11.93;;
79640;SDS011;69115;49.904;14.390;2024-02-28T09:17:24;17.55;;;10.68;;
79640;SDS011;69115;49.904;14.390;2024-02-28T09:19:50;19.63;;;10.93;;
79640;SDS011;69115;49.904;14.390;2024-02-28T09:22:15;20.33;;;10.30;;
79640;SDS011;69115;49.904;14.390;2024-02-28T09:24:42;17.75;;;10.63;;
79640;SDS011;69115;49.904;14.390;2024-02-28T09:27:07;18.98;;;11.07;;
79640;SDS011;69115;49.904;14.390;2024-02-28T09:29:32;17.38;;;10.85;;
79640;SDS011;69115;49.904;14.390;2024-02-28T09:31:58;19.42;;;11.63;;
79640;SDS011;69115;49.904;14.390;2024-02-28T09:34:23;19.95;;;11.27;;
79640;SDS011;69115;49.904;14.390;2024-02-28T09:36:49;20.53;;;10.67;;
79640;SDS011;69115;49.904;14.390;2024-02-28T09:39:14;19.80;;;11.17;;
79640;SDS011;69115;49.904;14.390;2024-02-28T09:41:43;16.27;;;10.30;;
79640;SDS011;69115;49.904;14.390;2024-02-28T09:44:09;17.00;;;10.82;;
79640;SDS011;69115;49.904;14.390;2024-02-28T09:46:35;17.77;;;10.73;;
79640;SDS011;69115;49.904;14.390;2024-02-28T09:49:04;17.40;;;9.63;;
79640;SDS011;69115;49.904;14.390;2024-02-28T09:51:31;18.45;;;11.13;;
79640;SDS011;69115;49.904;14.390;2024-02-28T09:53:59;18.15;;;11.00;;
79640;SDS011;69115;49.904;14.390;2024-02-28T09:56:28;18.52;;;11.77;;
79640;SDS011;69115;49.904;14.390;2024-02-28T09:58:54;18.40;;;10.55;;
79640;SDS011;69115;49.904;14.390;2024-02-28T10:01:19;17.38;;;10.70;;
79640;SDS011;69115;49.904;14.390;2024-02-28T10:03:50;17.10;;;10.75;;
79640;SDS011;69115;49.904;14.390;2024-02-28T10:06:17;17.50;;;11.23;;
79640;SDS011;69115;49.904;14.390;2024-02-28T10:08:43;16.58;;;10.23;;
79640;SDS011;69115;49.904;14.390;2024-02-28T10:11:12;16.70;;;10.90;;
79640;SDS011;69115;49.904;14.390;2024-02-28T10:13:42;16.48;;;9.88;;
79640;SDS011;69115;49.904;14.390;2024-02-28T10:16:07;15.32;;;10.55;;
79640;SDS011;69115;49.904;14.390;2024-02-28T10:18:33;18.57;;;11.43;;
79640;SDS011;69115;49.904;14.390;2024-02-28T10:20:58;18.50;;;11.02;;
79640;SDS011;69115;49.904;14.390;2024-02-28T10:23:23;18.30;;;11.30;;
79640;SDS011;69115;49.904;14.390;2024-02-28T10:25:49;17.73;;;11.53;;
79640;SDS011;69115;49.904;14.390;2024-02-28T10:28:14;19.20;;;11.70;;
79640;SDS011;69115;49.904;14.390;2024-02-28T10:30:41;22.15;;;12.85;;
79640;SDS011;69115;49.904;14.390;2024-02-28T10:33:13;18.95;;;13.02;;
79640;SDS011;69115;49.904;14.390;2024-02-28T10:35:39;18.80;;;11.30;;
79640;SDS011;69115;49.904;14.390;2024-02-28T10:38:11;18.77;;;12.45;;
79640;SDS011;69115;49.904;14.390;2024-02-28T10:40:38;17.58;;;11.57;;
79640;SDS011;69115;49.904;14.390;2024-02-28T10:43:05;22.08;;;12.80;;
79640;SDS011;69115;49.904;14.390;2024-02-28T10:45:32;19.38;;;12.88;;
79640;SDS011;69115;49.904;14.390;2024-02-28T10:47:58;20.30;;;12.40;;
79640;SDS011;69115;49.904;14.390;2024-02-28T10:50:23;22.58;;;13.55;;
79640;SDS011;69115;49.904;14.390;2024-02-28T10:52:49;18.95;;;12.85;;
79640;SDS011;69115;49.904;14.390;2024-02-28T10:55:20;20.80;;;12.52;;
79640;SDS011;69115;49.904;14.390;2024-02-28T10:57:49;19.15;;;12.43;;
79640;SDS011;69115;49.904;14.390;2024-02-28T11:02:44;21.80;;;12.13;;
79640;SDS011;69115;49.904;14.390;2024-02-28T11:05:10;18.73;;;12.15;;
79640;SDS011;69115;49.904;14.390;2024-02-28T11:07:36;18.70;;;12.05;;
79640;SDS011;69115;49.904;14.390;2024-02-28T11:10:06;19.10;;;12.70;;
79640;SDS011;69115;49.904;14.390;2024-02-28T11:12:31;18.90;;;11.95;;
79640;SDS011;69115;49.904;14.390;2024-02-28T11:15:01;18.63;;;11.82;;
79640;SDS011;69115;49.904;14.390;2024-02-28T11:17:29;21.38;;;12.27;;
79640;SDS011;69115;49.904;14.390;2024-02-28T11:19:55;17.42;;;11.40;;
79640;SDS011;69115;49.904;14.390;2024-02-28T11:22:20;18.95;;;11.32;;
79640;SDS011;69115;49.904;14.390;2024-02-28T11:24:48;22.67;;;12.80;;
79640;SDS011;69115;49.904;14.390;2024-02-28T11:27:15;28.17;;;14.15;;
79640;SDS011;69115;49.904;14.390;2024-02-28T11:29:40;24.70;;;13.55;;
79640;SDS011;69115;49.904;14.390;2024-02-28T11:32:06;24.13;;;14.25;;
79640;SDS011;69115;49.904;14.390;2024-02-28T11:34:33;24.77;;;14.80;;
79640;SDS011;69115;49.904;14.390;2024-02-28T11:36:59;19.10;;;12.88;;
79640;SDS011;69115;49.904;14.390;2024-02-28T11:39:24;20.15;;;11.95;;
79640;SDS011;69115;49.904;14.390;2024-02-28T11:41:51;19.63;;;11.93;;
79640;SDS011;69115;49.904;14.390;2024-02-28T11:44:17;17.58;;;10.73;;
79640;SDS011;69115;49.904;14.390;2024-02-28T11:46:46;16.67;;;11.60;;
79640;SDS011;69115;49.904;14.390;2024-02-28T11:49:15;17.35;;;10.93;;
79640;SDS011;69115;49.904;14.390;2024-02-28T11:51:41;21.05;;;12.15;;
79640;SDS011;69115;49.904;14.390;2024-02-28T11:54:07;17.17;;;12.15;;
79640;SDS011;69115;49.904;14.390;2024-02-28T11:56:34;17.73;;;12.48;;
79640;SDS011;69115;49.904;14.390;2024-02-28T11:58:59;19.90;;;12.45;;
79640;SDS011;69115;49.904;14.390;2024-02-28T12:01:58;18.00;;;11.40;;
79640;SDS011;69115;49.904;14.390;2024-02-28T12:04:17;18.10;;;11.60;;
79640;SDS011;69115;49.904;14.390;2024-02-28T12:06:42;18.88;;;12.55;;
79640;SDS011;69115;49.904;14.390;2024-02-28T12:09:09;16.08;;;11.43;;
79640;SDS011;69115;49.904;14.390;2024-02-28T12:11:36;18.30;;;11.88;;
79640;SDS011;69115;49.904;14.390;2024-02-28T12:14:08;19.67;;;12.88;;
79640;SDS011;69115;49.904;14.390;2024-02-28T12:16:37;20.70;;;11.73;;
79640;SDS011;69115;49.904;14.390;2024-02-28T12:19:04;16.40;;;11.30;;
79640;SDS011;69115;49.904;14.390;2024-02-28T12:21:32;18.98;;;11.85;;
79640;SDS011;69115;49.904;14.390;2024-02-28T12:23:58;19.77;;;12.70;;
79640;SDS011;69115;49.904;14.390;2024-02-28T12:26:23;19.65;;;13.10;;
79640;SDS011;69115;49.904;14.390;2024-02-28T12:28:49;19.00;;;13.07;;
79640;SDS011;69115;49.904;14.390;2024-02-28T12:31:14;18.33;;;12.82;;
79640;SDS011;69115;49.904;14.390;2024-02-28T12:33:40;18.83;;;12.98;;
79640;SDS011;69115;49.904;14.390;2024-02-28T12:36:07;21.63;;;14.27;;
79640;SDS011;69115;49.904;14.390;2024-02-28T12:38:32;20.50;;;13.63;;
79640;SDS011;69115;49.904;14.390;2024-02-28T12:40:58;19.48;;;13.88;;
79640;SDS011;69115;49.904;14.390;2024-02-28T12:43:23;18.52;;;12.65;;
79640;SDS011;69115;49.904;14.390;2024-02-28T12:45:50;23.33;;;13.95;;
79640;SDS011;69115;49.904;14.390;2024-02-28T12:48:15;21.13;;;13.93;;
79640;SDS011;69115;49.904;14.390;2024-02-28T12:50:41;19.85;;;13.80;;
79640;SDS011;69115;49.904;14.390;2024-02-28T12:53:06;20.88;;;14.32;;
79640;SDS011;69115;49.904;14.390;2024-02-28T12:55:31;19.25;;;13.32;;
79640;SDS011;69115;49.904;14.390;2024-02-28T12:57:57;24.33;;;14.95;;
79640;SDS011;69115;49.904;14.390;2024-02-28T13:00:24;20.30;;;13.82;;
79640;SDS011;69115;49.904;14.390;2024-02-28T13:02:50;19.40;;;14.02;;
79640;SDS011;69115;49.904;14.390;2024-02-28T13:05:15;19.85;;;14.18;;
79640;SDS011;69115;49.904;14.390;2024-02-28T13:07:41;19.48;;;13.88;;
79640;SDS011;69115;49.904;14.390;2024-02-28T13:10:06;20.95;;;14.13;;
79640;SDS011;69115;49.904;14.390;2024-02-28T13:12:32;17.50;;;12.25;;
79640;SDS011;69115;49.904;14.390;2024-02-28T13:14:58;18.17;;;13.32;;
79640;SDS011;69115;49.904;14.390;2024-02-28T13:17:24;21.50;;;13.57;;
79640;SDS011;69115;49.904;14.390;2024-02-28T13:19:49;21.02;;;14.52;;
79640;SDS011;69115;49.904;14.390;2024-02-28T13:22:15;22.25;;;15.07;;
79640;SDS011;69115;49.904;14.390;2024-02-28T13:24:40;21.00;;;14.67;;
79640;SDS011;69115;49.904;14.390;2024-02-28T13:27:06;20.00;;;13.77;;
79640;SDS011;69115;49.904;14.390;2024-02-28T13:29:32;22.15;;;14.52;;
79640;SDS011;69115;49.904;14.390;2024-02-28T13:31:58;21.67;;;15.60;;
79640;SDS011;69115;49.904;14.390;2024-02-28T13:34:23;20.55;;;14.50;;
79640;SDS011;69115;49.904;14.390;2024-02-28T13:36:49;20.37;;;15.27;;
79640;SDS011;69115;49.904;14.390;2024-02-28T13:39:15;23.98;;;15.52;;
79640;SDS011;69115;49.904;14.390;2024-02-28T13:41:41;21.02;;;14.35;;
79640;SDS011;69115;49.904;14.390;2024-02-28T13:44:06;21.70;;;14.80;;
79640;SDS011;69115;49.904;14.390;2024-02-28T13:46:34;25.35;;;15.52;;
79640;SDS011;69115;49.904;14.390;2024-02-28T13:48:59;24.55;;;15.18;;
79640;SDS011;69115;49.904;14.390;2024-02-28T13:51:25;23.02;;;14.60;;
79640;SDS011;69115;49.904;14.390;2024-02-28T13:53:50;22.38;;;15.38;;
79640;SDS011;69115;49.904;14.390;2024-02-28T13:56:19;22.90;;;15.00;;
79640;SDS011;69115;49.904;14.390;2024-02-28T13:58:44;20.52;;;14.00;;
79640;SDS011;69115;49.904;14.390;2024-02-28T14:01:11;21.48;;;14.15;;
79640;SDS011;69115;49.904;14.390;2024-02-28T14:03:37;23.27;;;14.70;;